Time;durP1;ratioP1;P1;durP2;ratioP2;P2;SDS_P1;SDS_P2;PMS_P1;PMS_P2;Temp;Humidity;BMP_temperature;BMP_pressure;BME280_temperature;BME280_humidity;BME280_pressure;Samples;Min_cycle;Max_cycle;Signal;HPM_P1;HPM_P2
2023/09/27 00:01:47;;;;;;;;;;;16.40;99.90;;;;;;5046683;28;20161;-68
2023/09/27 00:04:15;;;;;;;;;;;16.40;99.90;;;;;;5062978;28;19966;-68
2023/09/27 00:06:43;;;;;;;;;;;16.40;99.90;;;;;;5059962;28;19920;-68
2023/09/27 00:09:11;;;;;;;;;;;16.40;99.90;;;;;;5059404;28;19928;-68
2023/09/27 00:11:39;;;;;;;;;;;16.40;99.90;;;;;;5052497;28;19924;-68
2023/09/27 00:14:08;;;;;;;;;;;16.40;99.90;;;;;;5045085;28;19932;-68
2023/09/27 00:16:36;;;;;;;;;;;16.40;99.90;;;;;;5054834;28;19921;-66
2023/09/27 00:19:05;;;;;;;;;;;16.30;99.90;;;;;;5056323;28;19943;-68
2023/09/27 00:21:33;;;;;;;;;;;16.30;99.90;;;;;;5054611;28;19920;-68
2023/09/27 00:24:01;;;;;;;;;;;16.30;99.90;;;;;;5054769;28;20387;-68
2023/09/27 00:26:28;;;;;;;;;;;16.30;99.90;;;;;;5052877;28;19935;-68
2023/09/27 00:28:56;;;;;;;;;;;16.30;99.90;;;;;;5056640;28;19931;-67
2023/09/27 00:31:25;;;;;;;;;;;16.10;99.90;;;;;;5056112;28;19925;-68
2023/09/27 00:33:53;;;;;;;;;;;16.10;99.90;;;;;;5059202;28;19943;-68
2023/09/27 00:36:21;;;;;;;;;;;16.10;99.90;;;;;;5057785;28;20011;-68
2023/09/27 00:38:49;;;;;;;;;;;16.10;99.90;;;;;;5055354;28;20291;-68
2023/09/27 00:41:17;;;;;;;;;;;16.00;99.90;;;;;;5056608;28;20303;-68
2023/09/27 00:43:44;;;;;;;;;;;16.10;99.90;;;;;;5043681;28;19920;-68
2023/09/27 00:46:15;;;;;;;;;;;16.10;99.90;;;;;;5054641;28;19921;-68
2023/09/27 00:48:44;;;;;;;;;;;16.10;99.90;;;;;;5051137;28;19928;-67
2023/09/27 00:51:13;;;;;;;;;;;16.00;99.90;;;;;;5051289;28;19921;-68
2023/09/27 00:53:42;;;;;;;;;;;16.00;99.90;;;;;;5053972;28;19967;-68
2023/09/27 00:56:10;;;;;;;;;;;16.00;99.90;;;;;;5055998;28;19921;-68
2023/09/27 00:58:38;;;;;;;;;;;15.90;99.90;;;;;;5051606;28;19925;-66
2023/09/27 01:01:06;;;;;;;;;;;15.70;99.90;;;;;;5050075;28;20299;-68
2023/09/27 01:03:34;;;;;;;;;;;15.60;99.90;;;;;;5056825;28;19925;-68
2023/09/27 01:06:03;;;;;;;;;;;15.50;99.90;;;;;;5056388;28;19932;-67
2023/09/27 01:08:31;;;;;;;;;;;15.50;99.90;;;;;;5054921;28;19932;-69
2023/09/27 01:10:59;;;;;;;;;;;15.30;99.90;;;;;;5042424;28;19970;-70
2023/09/27 01:13:26;;;;;;;;;;;15.10;99.90;;;;;;5046982;28;19921;-68
2023/09/27 01:15:54;;;;;;;;;;;14.90;99.90;;;;;;5045127;28;19928;-68
2023/09/27 01:18:22;;;;;;;;;;;14.80;99.90;;;;;;5062766;28;19920;-67
2023/09/27 01:20:50;;;;;;;;;;;14.80;99.90;;;;;;5059537;28;19931;-68
2023/09/27 01:23:19;;;;;;;;;;;14.80;99.90;;;;;;5058981;28;19970;-68
2023/09/27 01:25:49;;;;;;;;;;;14.90;99.90;;;;;;5059899;28;19921;-68
2023/09/27 01:28:20;;;;;;;;;;;14.90;99.90;;;;;;5056418;28;19927;-68
2023/09/27 01:30:48;;;;;;;;;;;15.00;99.90;;;;;;5050114;28;19966;-68
2023/09/27 01:33:16;;;;;;;;;;;15.00;99.90;;;;;;5058793;28;19921;-70
2023/09/27 01:35:44;;;;;;;;;;;15.00;99.90;;;;;;5055678;28;20011;-66
2023/09/27 01:38:12;;;;;;;;;;;15.00;99.90;;;;;;5079180;28;20418;-68
2023/09/27 01:40:42;;;;;;;;;;;14.80;99.90;;;;;;5053706;28;19983;-67
2023/09/27 01:43:10;;;;;;;;;;;14.80;99.90;;;;;;5054088;28;19971;-66
2023/09/27 01:45:38;;;;;;;;;;;14.80;99.90;;;;;;5041676;28;19920;-66
2023/09/27 01:48:06;;;;;;;;;;;14.80;99.90;;;;;;5057103;28;19927;-66
2023/09/27 01:50:35;;;;;;;;;;;14.90;99.90;;;;;;5057146;28;19963;-66
2023/09/27 01:53:04;;;;;;;;;;;14.90;99.90;;;;;;5045454;28;19926;-68
2023/09/27 01:55:32;;;;;;;;;;;15.00;99.90;;;;;;5050332;28;20099;-68
2023/09/27 01:58:01;;;;;;;;;;;14.90;99.90;;;;;;5059754;28;19921;-67
2023/09/27 02:00:29;;;;;;;;;;;14.90;99.90;;;;;;5054044;28;20365;-67
2023/09/27 02:02:58;;;;;;;;;;;15.00;99.90;;;;;;5056392;28;19921;-67
2023/09/27 02:05:26;;;;;;;;;;;15.10;99.90;;;;;;5054139;28;19924;-67
2023/09/27 02:07:55;;;;;;;;;;;15.10;99.90;;;;;;5063696;28;19920;-67
2023/09/27 02:10:23;;;;;;;;;;;15.10;99.90;;;;;;5065065;28;19948;-66
2023/09/27 02:12:50;;;;;;;;;;;15.20;99.90;;;;;;5048107;28;19928;-66
2023/09/27 02:15:20;;;;;;;;;;;15.20;99.90;;;;;;5060195;28;19925;-68
2023/09/27 02:17:48;;;;;;;;;;;15.20;99.90;;;;;;5053719;28;19928;-67
2023/09/27 02:20:17;;;;;;;;;;;15.20;99.90;;;;;;5054232;28;19921;-66
2023/09/27 02:22:47;;;;;;;;;;;15.10;99.90;;;;;;5053175;28;20011;-67
2023/09/27 02:25:16;;;;;;;;;;;15.10;99.90;;;;;;5053437;28;19932;-66
2023/09/27 02:27:44;;;;;;;;;;;15.10;99.90;;;;;;5053946;28;19940;-65
2023/09/27 02:30:12;;;;;;;;;;;15.10;99.90;;;;;;5054131;28;19921;-66
2023/09/27 02:32:42;;;;;;;;;;;15.10;99.90;;;;;;5053708;28;19924;-65
2023/09/27 02:35:10;;;;;;;;;;;14.90;99.90;;;;;;5045964;28;19928;-66
2023/09/27 02:37:39;;;;;;;;;;;14.80;99.90;;;;;;5053836;28;20016;-67
2023/09/27 02:40:11;;;;;;;;;;;14.80;99.90;;;;;;5056544;28;19920;-67
2023/09/27 02:42:40;;;;;;;;;;;14.70;99.90;;;;;;5056579;28;19921;-65
2023/09/27 02:45:09;;;;;;;;;;;14.70;99.90;;;;;;5038918;28;19970;-68
2023/09/27 02:47:37;;;;;;;;;;;14.70;99.90;;;;;;5059929;28;19921;-67
2023/09/27 02:50:09;;;;;;;;;;;14.60;99.90;;;;;;5062807;28;19935;-68
2023/09/27 02:52:38;;;;;;;;;;;14.50;99.90;;;;;;5055573;28;19928;-67
2023/09/27 02:55:08;;;;;;;;;;;14.50;99.90;;;;;;5052390;28;20338;-67
2023/09/27 02:57:36;;;;;;;;;;;14.50;99.90;;;;;;5056193;28;19920;-68
2023/09/27 03:00:06;;;;;;;;;;;14.50;99.90;;;;;;5058947;28;19935;-67
2023/09/27 03:02:34;;;;;;;;;;;14.60;99.90;;;;;;5059746;28;20014;-67
2023/09/27 03:05:05;;;;;;;;;;;14.70;99.90;;;;;;5055720;28;20363;-66
2023/09/27 03:07:35;;;;;;;;;;;14.80;99.90;;;;;;5061200;28;19966;-68
2023/09/27 03:10:04;;;;;;;;;;;14.80;99.90;;;;;;5054785;28;19928;-66
2023/09/27 03:12:32;;;;;;;;;;;14.90;99.90;;;;;;5051968;28;20007;-67
2023/09/27 03:15:00;;;;;;;;;;;15.00;99.90;;;;;;5054297;28;20003;-66
2023/09/27 03:17:28;;;;;;;;;;;15.00;99.90;;;;;;5062585;28;19920;-67
2023/09/27 03:19:56;;;;;;;;;;;15.10;99.90;;;;;;5060922;28;19921;-67
2023/09/27 03:22:24;;;;;;;;;;;15.00;99.90;;;;;;5057752;28;19920;-67
2023/09/27 03:24:53;;;;;;;;;;;15.10;99.90;;;;;;5057282;28;20023;-66
2023/09/27 03:27:21;;;;;;;;;;;15.10;99.90;;;;;;5058384;28;19920;-67
2023/09/27 03:29:49;;;;;;;;;;;14.90;99.90;;;;;;5050844;28;19925;-66
2023/09/27 03:32:16;;;;;;;;;;;14.70;99.90;;;;;;5046114;28;20350;-67
2023/09/27 03:34:44;;;;;;;;;;;14.60;99.90;;;;;;5060757;28;19971;-67
2023/09/27 03:37:13;;;;;;;;;;;14.50;99.90;;;;;;5061566;28;20283;-67
2023/09/27 03:39:41;;;;;;;;;;;14.40;99.90;;;;;;5060569;28;20464;-66
2023/09/27 03:42:11;;;;;;;;;;;14.30;99.90;;;;;;5059002;28;20302;-66
2023/09/27 03:44:39;;;;;;;;;;;14.20;99.90;;;;;;5063332;28;19978;-66
2023/09/27 03:47:07;;;;;;;;;;;14.20;99.90;;;;;;5061386;28;19921;-67
2023/09/27 03:49:36;;;;;;;;;;;14.10;99.90;;;;;;5062366;28;19921;-67
2023/09/27 03:52:04;;;;;;;;;;;14.10;99.90;;;;;;5058586;28;19927;-66
2023/09/27 03:54:32;;;;;;;;;;;14.10;99.90;;;;;;5045054;28;19925;-66
2023/09/27 03:57:00;;;;;;;;;;;14.10;99.90;;;;;;5057831;28;19920;-67
2023/09/27 03:59:29;;;;;;;;;;;14.20;99.90;;;;;;5051231;28;19921;-67
2023/09/27 04:01:57;;;;;;;;;;;14.30;99.90;;;;;;5051593;28;20379;-67
2023/09/27 04:04:25;;;;;;;;;;;14.40;99.90;;;;;;5051125;28;19928;-67
2023/09/27 04:06:54;;;;;;;;;;;14.50;99.90;;;;;;5050947;28;19920;-67
2023/09/27 04:09:23;;;;;;;;;;;14.40;99.90;;;;;;5059356;28;20338;-67
2023/09/27 04:11:50;;;;;;;;;;;14.50;99.90;;;;;;5051551;28;19932;-67
2023/09/27 04:14:18;;;;;;;;;;;14.60;99.90;;;;;;5050582;28;19928;-67
2023/09/27 04:16:47;;;;;;;;;;;14.60;99.90;;;;;;5048769;28;19921;-67
2023/09/27 04:19:15;;;;;;;;;;;14.70;99.90;;;;;;5055056;28;19921;-67
2023/09/27 04:21:43;;;;;;;;;;;14.70;99.90;;;;;;5050996;28;19974;-65
2023/09/27 04:24:11;;;;;;;;;;;14.70;99.90;;;;;;5042186;28;19924;-64
2023/09/27 04:26:39;;;;;;;;;;;14.70;99.90;;;;;;5039382;28;19951;-65
2023/09/27 04:29:07;;;;;;;;;;;14.80;99.90;;;;;;5039684;28;19928;-64
2023/09/27 04:31:35;;;;;;;;;;;14.80;99.90;;;;;;5040616;28;19951;-64
2023/09/27 04:34:04;;;;;;;;;;;14.80;99.90;;;;;;5038534;28;20399;-64
2023/09/27 04:36:32;;;;;;;;;;;14.80;99.90;;;;;;5039780;28;19924;-65
2023/09/27 04:39:00;;;;;;;;;;;14.80;99.90;;;;;;5039709;28;19928;-64
2023/09/27 04:41:28;;;;;;;;;;;14.70;99.90;;;;;;5038522;28;19929;-64
2023/09/27 04:43:57;;;;;;;;;;;14.80;99.90;;;;;;5037529;28;19929;-65
2023/09/27 04:46:25;;;;;;;;;;;14.70;99.90;;;;;;5040178;28;19931;-64
2023/09/27 04:48:52;;;;;;;;;;;14.60;99.90;;;;;;5040213;28;20682;-65
2023/09/27 04:51:22;;;;;;;;;;;14.50;99.90;;;;;;5040157;28;19928;-65
2023/09/27 04:53:50;;;;;;;;;;;14.50;99.90;;;;;;5036813;28;19928;-65
2023/09/27 04:56:17;;;;;;;;;;;14.50;99.90;;;;;;5039889;28;19929;-65
2023/09/27 04:58:45;;;;;;;;;;;14.50;99.90;;;;;;5040090;28;20020;-64
2023/09/27 05:01:13;;;;;;;;;;;14.50;99.90;;;;;;5039753;28;19971;-63
2023/09/27 05:03:41;;;;;;;;;;;14.60;99.90;;;;;;5037384;28;20694;-64
2023/09/27 05:06:09;;;;;;;;;;;14.60;99.90;;;;;;5039422;28;19970;-64
2023/09/27 05:08:38;;;;;;;;;;;14.60;99.90;;;;;;5039485;28;19974;-64
2023/09/27 05:11:06;;;;;;;;;;;14.60;99.90;;;;;;5039386;28;20002;-65
2023/09/27 05:13:34;;;;;;;;;;;14.70;99.90;;;;;;5037299;28;19959;-64
2023/09/27 05:16:03;;;;;;;;;;;14.70;99.90;;;;;;5039131;28;19967;-64
2023/09/27 05:18:30;;;;;;;;;;;14.60;99.90;;;;;;5039825;28;19962;-64
2023/09/27 05:21:04;;;;;;;;;;;14.60;99.90;;;;;;5039357;28;20002;-64
2023/09/27 05:23:31;;;;;;;;;;;14.50;99.90;;;;;;5037483;28;19959;-64
2023/09/27 05:26:01;;;;;;;;;;;14.50;99.90;;;;;;5038537;28;20449;-64
2023/09/27 05:28:29;;;;;;;;;;;14.50;99.90;;;;;;5039465;28;20047;-64
2023/09/27 05:30:57;;;;;;;;;;;14.50;99.90;;;;;;5039896;28;20006;-64
2023/09/27 05:33:25;;;;;;;;;;;14.60;99.90;;;;;;5041187;28;20267;-65
2023/09/27 05:35:53;;;;;;;;;;;14.50;99.90;;;;;;5042839;28;20070;-63
2023/09/27 05:38:21;;;;;;;;;;;14.50;99.90;;;;;;5042929;28;19973;-64
2023/09/27 05:40:49;;;;;;;;;;;14.60;99.90;;;;;;5043483;28;19970;-64
2023/09/27 05:43:18;;;;;;;;;;;14.50;99.90;;;;;;5041739;28;20642;-64
2023/09/27 05:45:46;;;;;;;;;;;14.50;99.90;;;;;;5043518;28;19967;-64
2023/09/27 05:48:14;;;;;;;;;;;14.50;99.90;;;;;;5043068;28;19974;-64
2023/09/27 05:50:44;;;;;;;;;;;14.60;99.90;;;;;;5043166;28;19973;-64
2023/09/27 05:53:12;;;;;;;;;;;14.60;99.90;;;;;;5040446;28;20017;-64
2023/09/27 05:55:41;;;;;;;;;;;14.60;99.90;;;;;;5042220;28;19974;-64
2023/09/27 05:58:09;;;;;;;;;;;14.50;99.90;;;;;;5041529;28;19966;-65
2023/09/27 06:00:40;;;;;;;;;;;14.60;99.90;;;;;;5040491;28;20355;-64
2023/09/27 06:03:08;;;;;;;;;;;14.60;99.90;;;;;;5040444;28;19967;-64
2023/09/27 06:05:36;;;;;;;;;;;14.40;99.90;;;;;;5041248;28;19974;-64
2023/09/27 06:08:04;;;;;;;;;;;14.30;99.90;;;;;;5040847;28;19959;-64
2023/09/27 06:10:32;;;;;;;;;;;14.10;99.90;;;;;;5041614;28;20007;-64
2023/09/27 06:12:59;;;;;;;;;;;14.10;99.90;;;;;;5039764;28;19970;-64
2023/09/27 06:15:27;;;;;;;;;;;14.10;99.90;;;;;;5041362;28;20417;-64
2023/09/27 06:17:56;;;;;;;;;;;14.10;99.90;;;;;;5043046;28;20213;-64
2023/09/27 06:20:29;;;;;;;;;;;14.10;99.90;;;;;;5042828;28;19971;-64
2023/09/27 06:23:03;;;;;;;;;;;14.10;99.90;;;;;;5044210;28;19967;-64
2023/09/27 06:25:32;;;;;;;;;;;14.10;99.90;;;;;;5050089;28;19963;-66
2023/09/27 06:28:00;;;;;;;;;;;14.10;99.90;;;;;;5058239;28;20450;-69
2023/09/27 06:30:29;;;;;;;;;;;14.10;99.90;;;;;;5065441;28;19981;-65
2023/09/27 06:32:58;;;;;;;;;;;14.10;99.90;;;;;;5065917;28;19978;-66
2023/09/27 06:35:26;;;;;;;;;;;14.10;99.90;;;;;;5061105;28;20005;-65
2023/09/27 06:37:54;;;;;;;;;;;14.00;99.90;;;;;;5060607;28;19973;-66
2023/09/27 06:40:24;;;;;;;;;;;14.00;99.90;;;;;;5064156;28;20368;-65
2023/09/27 06:42:52;;;;;;;;;;;14.00;99.90;;;;;;5058289;28;20441;-66
2023/09/27 06:45:20;;;;;;;;;;;14.00;99.90;;;;;;5046364;28;19967;-66
2023/09/27 06:47:48;;;;;;;;;;;14.10;99.90;;;;;;5065594;28;19984;-64
2023/09/27 06:50:17;;;;;;;;;;;14.20;99.90;;;;;;5063277;28;19967;-66
2023/09/27 06:52:46;;;;;;;;;;;14.20;99.90;;;;;;5061701;28;20460;-65
2023/09/27 06:55:16;;;;;;;;;;;14.20;99.90;;;;;;5062490;28;19967;-66
2023/09/27 06:57:46;;;;;;;;;;;14.30;99.90;;;;;;5065650;28;20321;-65
2023/09/27 07:00:18;;;;;;;;;;;14.40;99.90;;;;;;5063761;28;19966;-66
2023/09/27 07:02:47;;;;;;;;;;;14.50;99.90;;;;;;5061570;28;20453;-66
2023/09/27 07:05:17;;;;;;;;;;;14.60;99.90;;;;;;5062055;28;19978;-66
2023/09/27 07:07:46;;;;;;;;;;;14.70;99.90;;;;;;5064839;28;20404;-65
2023/09/27 07:10:14;;;;;;;;;;;14.70;99.90;;;;;;5063638;28;20430;-65
2023/09/27 07:12:42;;;;;;;;;;;14.80;99.90;;;;;;5049501;28;20017;-66
2023/09/27 07:15:12;;;;;;;;;;;14.90;99.90;;;;;;5049407;28;20163;-65
2023/09/27 07:17:40;;;;;;;;;;;14.90;99.90;;;;;;5061323;28;20336;-66
2023/09/27 07:20:17;;;;;;;;;;;15.10;99.90;;;;;;5060819;28;20460;-64
2023/09/27 07:22:47;;;;;;;;;;;15.20;99.90;;;;;;5064629;28;20423;-66
2023/09/27 07:25:19;;;;;;;;;;;15.40;99.90;;;;;;5063356;28;20442;-66
2023/09/27 07:27:48;;;;;;;;;;;15.50;99.90;;;;;;5061147;28;20433;-66
2023/09/27 07:30:18;;;;;;;;;;;15.60;99.90;;;;;;5061503;28;19971;-66
2023/09/27 07:32:46;;;;;;;;;;;15.70;99.90;;;;;;5064414;28;19967;-66
2023/09/27 07:35:16;;;;;;;;;;;15.80;99.90;;;;;;5059823;28;19962;-65
2023/09/27 07:37:44;;;;;;;;;;;16.00;99.90;;;;;;5063739;28;20390;-65
2023/09/27 07:40:14;;;;;;;;;;;16.10;99.90;;;;;;5063813;28;20512;-64
2023/09/27 07:42:43;;;;;;;;;;;16.30;99.90;;;;;;5057560;28;19988;-66
2023/09/27 07:45:20;;;;;;;;;;;16.40;99.90;;;;;;5047205;28;20014;-65
2023/09/27 07:47:50;;;;;;;;;;;16.60;99.90;;;;;;5060587;28;20006;-66
2023/09/27 07:50:18;;;;;;;;;;;16.80;99.90;;;;;;5061276;28;19966;-66
2023/09/27 07:52:47;;;;;;;;;;;17.00;99.90;;;;;;5063758;28;20496;-66
2023/09/27 07:55:17;;;;;;;;;;;17.20;99.90;;;;;;5062670;28;19973;-64
2023/09/27 07:57:45;;;;;;;;;;;17.30;99.90;;;;;;5060622;28;20069;-66
2023/09/27 08:00:15;;;;;;;;;;;17.40;99.90;;;;;;5060485;28;20065;-65
2023/09/27 08:02:45;;;;;;;;;;;17.60;99.90;;;;;;5063735;28;19962;-66
2023/09/27 08:05:16;;;;;;;;;;;17.70;99.90;;;;;;5063483;28;20365;-65
2023/09/27 08:07:45;;;;;;;;;;;17.80;99.90;;;;;;5060294;28;20398;-66
2023/09/27 08:10:13;;;;;;;;;;;18.00;99.90;;;;;;5059593;28;20347;-66
2023/09/27 08:12:45;;;;;;;;;;;18.20;99.90;;;;;;5044549;28;20433;-66
2023/09/27 08:15:13;;;;;;;;;;;18.30;99.90;;;;;;5059774;28;20505;-64
2023/09/27 08:17:42;;;;;;;;;;;18.60;99.90;;;;;;5052173;28;19981;-66
2023/09/27 08:20:12;;;;;;;;;;;18.80;99.90;;;;;;5060183;28;19973;-66
2023/09/27 08:22:40;;;;;;;;;;;18.90;99.90;;;;;;5051872;28;19967;-66
2023/09/27 08:25:14;;;;;;;;;;;19.00;99.90;;;;;;5059675;28;19985;-66
2023/09/27 08:27:42;;;;;;;;;;;19.20;99.90;;;;;;5057330;28;19971;-67
2023/09/27 08:30:12;;;;;;;;;;;19.50;99.90;;;;;;5063377;28;20432;-66
2023/09/27 08:32:40;;;;;;;;;;;19.50;99.90;;;;;;5051812;28;19986;-67
2023/09/27 08:35:10;;;;;;;;;;;19.50;99.90;;;;;;5059670;28;20337;-66
2023/09/27 08:37:38;;;;;;;;;;;19.70;99.90;;;;;;5062497;28;19962;-66
2023/09/27 08:40:07;;;;;;;;;;;19.80;99.90;;;;;;5063373;28;19973;-67
2023/09/27 08:42:35;;;;;;;;;;;20.10;99.90;;;;;;5049206;28;19986;-66
2023/09/27 08:45:05;;;;;;;;;;;20.50;99.90;;;;;;5052456;28;20341;-66
2023/09/27 08:47:35;;;;;;;;;;;20.60;99.90;;;;;;5054132;28;20148;-66
2023/09/27 08:50:04;;;;;;;;;;;20.50;99.90;;;;;;5063389;28;20365;-66
2023/09/27 08:52:32;;;;;;;;;;;20.80;99.90;;;;;;5060792;28;19971;-66
2023/09/27 08:55:00;;;;;;;;;;;21.20;99.90;;;;;;5059308;28;19925;-66
2023/09/27 08:57:28;;;;;;;;;;;21.50;99.90;;;;;;5060668;28;19929;-66
2023/09/27 08:59:56;;;;;;;;;;;21.70;99.90;;;;;;5062574;28;19931;-66
2023/09/27 09:02:24;;;;;;;;;;;21.90;99.90;;;;;;5061866;28;20383;-66
2023/09/27 09:04:54;;;;;;;;;;;21.90;99.90;;;;;;5059374;28;20380;-66
2023/09/27 09:07:22;;;;;;;;;;;22.00;99.90;;;;;;5058568;28;19964;-65
2023/09/27 09:09:50;;;;;;;;;;;22.00;99.90;;;;;;5062976;28;19924;-66
2023/09/27 09:12:18;;;;;;;;;;;22.10;99.90;;;;;;5046457;28;19935;-66
2023/09/27 09:14:49;;;;;;;;;;;22.40;99.90;;;;;;5046812;28;20391;-67
2023/09/27 09:17:19;;;;;;;;;;;22.70;99.90;;;;;;5062438;28;19928;-65
2023/09/27 09:20:06;;;;;;;;;;;23.00;99.90;;;;;;5054796;28;19924;-66
2023/09/27 09:22:44;;;;;;;;;;;23.40;99.90;;;;;;5060521;28;19924;-67
2023/09/27 09:25:12;;;;;;;;;;;23.70;99.90;;;;;;5059237;28;19925;-66
2023/09/27 09:27:39;;;;;;;;;;;24.10;99.90;;;;;;5062058;28;19979;-66
2023/09/27 09:30:11;;;;;;;;;;;24.30;99.90;;;;;;5062742;28;19924;-68
2023/09/27 09:32:48;;;;;;;;;;;24.50;99.90;;;;;;5059884;28;19994;-66
2023/09/27 09:35:28;;;;;;;;;;;24.70;99.90;;;;;;5058884;28;20346;-66
2023/09/27 09:37:58;;;;;;;;;;;25.10;99.90;;;;;;5052101;28;19960;-66
2023/09/27 09:40:26;;;;;;;;;;;25.30;99.90;;;;;;5059754;28;20303;-66
2023/09/27 09:42:53;;;;;;;;;;;25.50;99.90;;;;;;5048629;28;19975;-67
2023/09/27 09:45:24;;;;;;;;;;;25.30;99.90;;;;;;5058797;28;20375;-66
2023/09/27 09:47:52;;;;;;;;;;;25.20;99.90;;;;;;5059104;28;19928;-67
2023/09/27 09:50:20;;;;;;;;;;;25.30;99.90;;;;;;5059223;28;20298;-66
2023/09/27 09:52:51;;;;;;;;;;;25.20;99.90;;;;;;5051090;28;19924;-67
2023/09/27 09:55:21;;;;;;;;;;;25.50;99.90;;;;;;5058922;28;19925;-66
2023/09/27 09:58:13;;;;;;;;;;;25.70;99.90;;;;;;5058418;28;20011;-67
2023/09/27 10:00:49;;;;;;;;;;;26.10;99.90;;;;;;5059792;28;20019;-67
2023/09/27 10:03:20;;;;;;;;;;;26.30;99.90;;;;;;5058661;28;19932;-67
2023/09/27 10:05:50;;;;;;;;;;;26.50;99.90;;;;;;5050157;28;19947;-67
2023/09/27 10:08:18;;;;;;;;;;;26.90;99.90;;;;;;5059584;28;20071;-65
2023/09/27 10:10:48;;;;;;;;;;;26.80;99.90;;;;;;5059063;28;20305;-66
2023/09/27 10:13:18;;;;;;;;;;;26.60;99.90;;;;;;5058510;28;20391;-66
2023/09/27 10:15:45;;;;;;;;;;;26.30;99.90;;;;;;5044955;28;20015;-66
2023/09/27 10:18:29;;;;;;;;;;;26.10;99.90;;;;;;5063169;28;19932;-67
2023/09/27 10:21:02;;;;;;;;;;;26.00;99.90;;;;;;5055124;28;20007;-66
2023/09/27 10:23:33;;;;;;;;;;;25.60;99.90;;;;;;5062833;28;19925;-67
2023/09/27 10:26:16;;;;;;;;;;;25.20;99.90;;;;;;5065676;28;19932;-67
2023/09/27 10:28:59;;;;;;;;;;;25.00;99.90;;;;;;5062937;28;19932;-67
2023/09/27 10:31:28;;;;;;;;;;;25.20;99.90;;;;;;5061962;28;20276;-66
2023/09/27 10:33:56;;;;;;;;;;;25.60;99.90;;;;;;5065535;28;19925;-67
2023/09/27 10:36:28;;;;;;;;;;;26.00;99.90;;;;;;5064916;28;19994;-66
2023/09/27 10:39:00;;;;;;;;;;;26.40;99.90;;;;;;5054051;28;19964;-68
2023/09/27 10:41:53;;;;;;;;;;;26.70;99.90;;;;;;5062272;28;19925;-67
2023/09/27 10:44:29;;;;;;;;;;;26.50;99.90;;;;;;5031307;28;19925;-66
2023/09/27 10:46:59;;;;;;;;;;;26.60;99.90;;;;;;5053760;28;20019;-66
2023/09/27 10:49:27;;;;;;;;;;;26.60;99.90;;;;;;5061766;28;20309;-68
2023/09/27 10:51:55;;;;;;;;;;;26.70;99.90;;;;;;5053965;28;20315;-67
2023/09/27 10:54:34;;;;;;;;;;;26.80;99.90;;;;;;5054374;28;19925;-67
2023/09/27 10:57:03;;;;;;;;;;;26.90;99.90;;;;;;5064754;28;19928;-67
2023/09/27 10:59:30;;;;;;;;;;;26.60;99.90;;;;;;5064770;28;19931;-66
2023/09/27 11:02:00;;;;;;;;;;;25.80;99.90;;;;;;5061459;28;19929;-67
2023/09/27 11:04:28;;;;;;;;;;;25.40;99.90;;;;;;5061565;28;19964;-67
2023/09/27 11:06:56;;;;;;;;;;;25.40;99.90;;;;;;5061257;28;19925;-67
2023/09/27 11:09:24;;;;;;;;;;;25.70;99.90;;;;;;5061416;28;19947;-68
2023/09/27 11:11:54;;;;;;;;;;;26.00;99.90;;;;;;5059876;28;19996;-67
2023/09/27 11:14:26;;;;;;;;;;;26.30;99.90;;;;;;5043111;28;19925;-66
2023/09/27 11:16:53;;;;;;;;;;;26.60;99.90;;;;;;5064490;28;20451;-66
2023/09/27 11:22:58;;;;;;;;;;;26.70;99.90;;;;;;5062933;28;19917;-67
2023/09/27 11:25:26;;;;;;;;;;;27.00;99.90;;;;;;5064504;28;19932;-67
2023/09/27 11:27:54;;;;;;;;;;;27.10;99.90;;;;;;5062013;28;20017;-66
2023/09/27 11:30:26;;;;;;;;;;;27.20;99.90;;;;;;5063714;28;19967;-67
2023/09/27 11:32:54;;;;;;;;;;;27.10;99.90;;;;;;5061294;28;19925;-67
2023/09/27 11:35:22;;;;;;;;;;;27.30;99.90;;;;;;5060850;28;20016;-67
2023/09/27 11:37:49;;;;;;;;;;;27.50;99.90;;;;;;5055269;28;20387;-67
2023/09/27 11:40:32;;;;;;;;;;;27.90;99.90;;;;;;5064278;28;19928;-69
2023/09/27 11:43:01;;;;;;;;;;;28.40;99.90;;;;;;5039007;28;19925;-67
2023/09/27 11:45:28;;;;;;;;;;;28.70;99.90;;;;;;5039960;28;19971;-68
2023/09/27 11:47:56;;;;;;;;;;;28.80;99.90;;;;;;5063490;28;19968;-67
2023/09/27 11:50:24;;;;;;;;;;;29.00;99.90;;;;;;5064167;28;20371;-68
2023/09/27 11:52:51;;;;;;;;;;;29.20;99.90;;;;;;5061437;28;19925;-67
2023/09/27 11:55:20;;;;;;;;;;;29.30;99.90;;;;;;5060540;28;19925;-67
2023/09/27 11:57:48;;;;;;;;;;;29.30;99.90;;;;;;5061814;28;19982;-67
2023/09/27 12:00:16;;;;;;;;;;;29.30;99.90;;;;;;5063751;28;19986;-67
2023/09/27 12:02:44;;;;;;;;;;;29.30;99.90;;;;;;5062506;28;20470;-66
2023/09/27 12:05:24;;;;;;;;;;;29.30;99.90;;;;;;5060357;28;19931;-67
2023/09/27 12:07:52;;;;;;;;;;;29.40;99.40;;;;;;5062358;28;19932;-67
2023/09/27 12:10:22;;;;;;;;;;;29.90;99.50;;;;;;5063971;28;19933;-67
2023/09/27 12:12:49;;;;;;;;;;;30.00;99.10;;;;;;5050494;28;19971;-66
2023/09/27 12:15:17;;;;;;;;;;;30.00;98.90;;;;;;5051966;28;19924;-68
2023/09/27 12:17:45;;;;;;;;;;;30.20;98.50;;;;;;5062051;28;19924;-66
2023/09/27 12:20:13;;;;;;;;;;;30.40;97.50;;;;;;5060221;28;19925;-68
2023/09/27 12:23:01;;;;;;;;;;;30.20;97.50;;;;;;5063723;28;19994;-67
2023/09/27 12:25:31;;;;;;;;;;;30.00;97.80;;;;;;5063313;28;19928;-67
2023/09/27 12:27:59;;;;;;;;;;;30.10;98.10;;;;;;5059633;28;20111;-66
2023/09/27 12:30:27;;;;;;;3.90;3.60;;;29.90;98.30;;;;;;5059191;28;20108;-66
2023/09/27 12:32:56;;;;;;;3.97;3.67;;;30.00;98.60;;;;;;5061872;28;20208;-66
2023/09/27 12:35:24;;;;;;;3.80;3.50;;;30.10;98.50;;;;;;5062449;28;20227;-67
2023/09/27 12:37:52;;;;;;;4.07;3.65;;;30.20;97.60;;;;;;5060212;28;20251;-66
2023/09/27 12:40:20;;;;;;;3.65;3.35;;;30.40;97.80;;;;;;5059375;28;20235;-67
2023/09/27 12:42:49;;;;;;;4.82;3.70;;;30.50;97.40;;;;;;5046369;28;20740;-67
2023/09/27 12:45:18;;;;;;;2.90;2.70;;;30.80;96.90;;;;;;5042466;28;20215;-67
2023/09/27 12:47:46;;;;;;;3.45;3.15;;;30.90;97.10;;;;;;5060068;28;20224;-67
2023/09/27 12:50:15;;;;;;;3.65;3.35;;;31.10;97.30;;;;;;5062566;28;20218;-66
2023/09/27 12:52:43;;;;;;;4.25;3.85;;;31.30;96.30;;;;;;5061786;28;20203;-65
2023/09/27 12:55:12;;;;;;;2.38;2.17;;;31.10;96.10;;;;;;5059069;28;20196;-67
2023/09/27 12:57:41;;;;;;;2.70;2.50;;;31.40;96.10;;;;;;5060840;28;20223;-67
2023/09/27 13:00:12;;;;;;;5.25;2.08;;;31.20;95.90;;;;;;5058938;28;21245;-66
2023/09/27 13:02:40;;;;;;;3.17;2.88;;;30.70;96.80;;;;;;5058902;28;20690;-67
2023/09/27 13:05:09;;;;;;;3.58;3.15;;;31.00;96.40;;;;;;5062287;28;20298;-67
2023/09/27 13:07:37;;;;;;;2.50;2.40;;;31.10;96.20;;;;;;5062219;28;20626;-66
2023/09/27 13:10:06;;;;;;;2.85;2.30;;;31.50;95.50;;;;;;5058517;28;20215;-66
2023/09/27 13:12:34;;;;;;;3.17;2.97;;;31.90;95.40;;;;;;5049544;28;20203;-67
2023/09/27 13:15:02;;;;;;;2.45;1.90;;;32.10;94.70;;;;;;5044829;28;20248;-66
2023/09/27 13:17:32;;;;;;;3.00;2.80;;;32.40;94.80;;;;;;5062436;28;20577;-68
2023/09/27 13:20:00;;;;;;;2.85;2.65;;;32.10;94.00;;;;;;5059396;28;20682;-67
2023/09/27 13:22:28;;;;;;;3.40;2.73;;;32.00;93.90;;;;;;5058809;28;20244;-67
2023/09/27 13:24:55;;;;;;;2.80;2.60;;;32.20;93.60;;;;;;5060331;28;21004;-67
2023/09/27 13:27:23;;;;;;;2.47;2.27;;;32.50;93.30;;;;;;5061554;28;21003;-67
2023/09/27 13:29:51;;;;;;;2.60;2.40;;;32.40;93.60;;;;;;5060318;28;20633;-67
2023/09/27 13:32:20;;;;;;;2.30;2.10;;;32.20;93.30;;;;;;5058847;28;20629;-68
2023/09/27 13:34:49;;;;;;;3.30;2.40;;;32.10;93.10;;;;;;5059430;28;20629;-67
2023/09/27 13:37:19;;;;;;;2.50;2.30;;;32.20;93.30;;;;;;5061769;28;20640;-67
2023/09/27 13:39:47;;;;;;;1.80;1.70;;;32.30;93.50;;;;;;5061332;28;20609;-67
2023/09/27 13:42:15;;;;;;;1.60;1.50;;;32.30;92.90;;;;;;5058700;28;20987;-67
2023/09/27 13:44:43;;;;;;;1.70;1.60;;;32.10;92.10;;;;;;5061817;28;20631;-66
2023/09/27 13:47:11;;;;;;;1.70;1.60;;;31.80;92.60;;;;;;5053893;28;20616;-67
2023/09/27 13:49:39;;;;;;;1.67;1.57;;;31.70;92.90;;;;;;5054190;28;20679;-66
2023/09/27 13:52:08;;;;;;;1.50;1.40;;;31.60;92.30;;;;;;5058468;28;21030;-67
2023/09/27 13:54:36;;;;;;;1.80;1.70;;;31.40;92.90;;;;;;5062108;28;20992;-67
2023/09/27 13:57:04;;;;;;;2.50;2.30;;;31.30;92.10;;;;;;5066191;28;20212;-67
2023/09/27 13:59:32;;;;;;;1.83;1.73;;;31.10;92.70;;;;;;5061765;28;20273;-67
2023/09/27 14:02:00;;;;;;;2.38;2.17;;;31.10;93.10;;;;;;5063939;28;21215;-67
2023/09/27 14:04:29;;;;;;;4.05;2.00;;;31.20;92.10;;;;;;5065424;28;20199;-67
2023/09/27 14:06:57;;;;;;;1.58;1.48;;;31.20;92.60;;;;;;5063471;28;20561;-67
2023/09/27 14:09:26;;;;;;;1.95;1.85;;;31.40;92.00;;;;;;5061855;28;20207;-68
2023/09/27 14:11:54;;;;;;;1.52;1.42;;;31.40;92.40;;;;;;5058773;28;20208;-66
2023/09/27 14:14:22;;;;;;;1.53;1.43;;;31.20;92.60;;;;;;5038444;28;20212;-67
2023/09/27 14:16:50;;;;;;;2.50;2.28;;;31.20;92.40;;;;;;5062014;28;20621;-67
2023/09/27 14:19:19;;;;;;;2.55;1.73;;;31.00;92.30;;;;;;5065411;28;20702;-67